createdAt,value
2022-09-16T00:01:40.317Z,10.38
2022-09-16T00:06:41.901Z,10.37
2022-09-16T00:11:43.756Z,10.37
2022-09-16T00:16:45.495Z,10.47
2022-09-16T00:21:48.793Z,10.62
2022-09-16T00:26:50.277Z,10.76
2022-09-16T00:31:54.619Z,10.87
2022-09-16T00:36:56.204Z,10.97
2022-09-16T00:41:57.720Z,10.99
2022-09-16T00:46:59.302Z,11.02
2022-09-16T00:52:06.694Z,11.06
2022-09-16T00:57:11.428Z,11.13
2022-09-16T01:02:17.294Z,11.15
2022-09-16T01:07:28.130Z,11.25
2022-09-16T01:12:31.792Z,11.28
2022-09-16T01:17:52.066Z,11.33
2022-09-16T01:23:02.843Z,11.32
2022-09-16T01:28:33.040Z,11.33
2022-09-16T01:33:59.793Z,11.35
2022-09-16T01:39:26.095Z,11.37
2022-09-16T01:44:31.453Z,11.37
2022-09-16T01:49:51.720Z,11.34
2022-09-16T01:55:01.960Z,11.28
2022-09-16T02:00:14.141Z,11.23
2022-09-16T02:05:26.068Z,11.23
2022-09-16T02:10:37.761Z,11.25
2022-09-16T02:15:42.248Z,11.15
2022-09-16T02:20:48.913Z,11.10
2022-09-16T02:25:52.416Z,10.94
2022-09-16T02:30:58.570Z,10.76
2022-09-16T02:36:04.685Z,10.69
2022-09-16T02:41:06.726Z,10.40
2022-09-16T02:46:23.837Z,10.41
2022-09-16T02:51:53.702Z,10.30
2022-09-16T02:56:57.296Z,10.23
2022-09-16T03:02:01.232Z,10.46
2022-09-16T03:07:06.400Z,10.49
2022-09-16T03:12:40.443Z,10.63
2022-09-16T03:17:58.517Z,10.67
2022-09-16T03:23:12.075Z,10.71
2022-09-16T03:28:17.959Z,10.78
2022-09-16T03:33:27.012Z,10.86
2022-09-16T03:38:28.818Z,10.89
2022-09-16T03:43:30.597Z,10.88
2022-09-16T03:48:32.774Z,10.93
2022-09-16T03:53:34.242Z,10.98
2022-09-16T03:58:36.011Z,10.96
2022-09-16T04:03:37.657Z,11.00
2022-09-16T04:08:39.757Z,11.01
2022-09-16T04:13:41.290Z,11.02
2022-09-16T04:18:42.763Z,10.94
2022-09-16T04:23:44.712Z,10.89
2022-09-16T04:28:47.984Z,10.94
2022-09-16T04:33:49.648Z,10.94
2022-09-16T04:38:51.329Z,10.89
2022-09-16T04:43:58.360Z,10.79
2022-09-16T04:49:00.478Z,10.68
2022-09-16T04:54:01.959Z,10.70
2022-09-16T04:59:05.528Z,10.74
2022-09-16T05:04:09.172Z,10.77
2022-09-16T05:09:12.052Z,10.76
2022-09-16T05:14:16.046Z,10.78
2022-09-16T05:19:17.555Z,10.74
2022-09-16T05:24:21.358Z,10.65
2022-09-16T05:29:22.844Z,10.51
2022-09-16T05:34:28.556Z,10.70
2022-09-16T05:39:30.310Z,10.78
2022-09-16T05:44:31.993Z,10.85
2022-09-16T05:49:33.488Z,10.77
2022-09-16T05:54:35.014Z,10.78
2022-09-16T05:59:36.670Z,10.68
2022-09-16T06:04:38.134Z,11.14
2022-09-16T06:09:39.863Z,10.94
2022-09-16T06:14:44.284Z,10.83
2022-09-16T06:19:45.792Z,10.62
2022-09-16T06:24:47.304Z,10.53
2022-09-16T06:29:48.839Z,11.77
2022-09-16T06:34:50.483Z,11.88
2022-09-16T06:41:02.685Z,12.25
2022-09-16T06:46:19.161Z,12.25
2022-09-16T06:51:23.118Z,12.68
2022-09-16T06:56:24.771Z,13.29
2022-09-16T07:01:29.294Z,11.96
2022-09-16T07:13:33.776Z,11.43
2022-09-16T07:18:35.802Z,12.34
2022-09-16T07:23:38.738Z,12.75
2022-09-16T07:28:41.879Z,13.24
2022-09-16T07:33:45.800Z,13.39
2022-09-16T07:38:50.208Z,13.49
2022-09-16T07:43:54.067Z,13.85
2022-09-16T07:49:00.586Z,14.04
2022-09-16T07:54:08.770Z,13.57
2022-09-16T07:59:17.489Z,13.55
2022-09-16T08:25:33.416Z,14.53
2022-09-16T08:30:34.942Z,13.71
2022-09-16T08:35:36.965Z,13.60
2022-09-16T08:40:43.543Z,15.24
2022-09-16T08:46:02.319Z,15.77
2022-09-16T08:51:06.229Z,14.63
2022-09-16T08:56:13.967Z,14.32
2022-09-16T09:01:38.055Z,13.94
2022-09-16T09:06:57.396Z,15.65
2022-09-16T09:12:18.254Z,14.27
2022-09-16T09:17:48.537Z,15.59
2022-09-16T09:23:23.612Z,16.55
2022-09-16T09:28:31.131Z,15.13
2022-09-16T09:33:47.242Z,14.97
2022-09-16T09:39:17.268Z,14.80
2022-09-16T09:44:58.527Z,16.10
2022-09-16T09:50:15.701Z,15.16
2022-09-16T09:55:21.184Z,16.64
2022-09-16T10:00:22.769Z,16.89
2022-09-16T10:05:27.475Z,17.91
2022-09-16T10:10:33.245Z,16.65
2022-09-16T10:15:34.827Z,16.14
2022-09-16T10:20:43.283Z,17.16
2022-09-16T10:25:44.880Z,16.28
2022-09-16T10:30:55.446Z,15.93
2022-09-16T10:36:00.817Z,16.66
2022-09-16T10:41:10.079Z,12.41
2022-09-16T10:46:15.595Z,12.19
2022-09-16T10:51:39.499Z,12.28
2022-09-16T11:03:50.162Z,12.24
2022-09-16T11:09:09.940Z,12.41
2022-09-16T11:14:20.622Z,14.51
2022-09-16T11:19:35.971Z,14.79
2022-09-16T11:24:55.001Z,15.38
2022-09-16T11:30:08.770Z,15.20
2022-09-16T11:35:39.610Z,16.00
2022-09-16T11:40:50.599Z,16.71
2022-09-16T11:46:01.279Z,16.23
2022-09-16T11:51:24.092Z,14.30
2022-09-16T11:56:37.497Z,12.41
2022-09-16T12:01:52.064Z,12.25
2022-09-16T12:07:19.745Z,13.76
2022-09-16T12:12:32.832Z,14.02
2022-09-16T12:17:39.584Z,14.83
2022-09-16T12:22:45.835Z,15.63
2022-09-16T12:27:55.492Z,16.27
2022-09-16T12:33:06.231Z,16.30
2022-09-16T12:38:19.304Z,16.78
2022-09-16T12:43:42.191Z,16.52
2022-09-16T12:49:02.791Z,16.99
2022-09-16T12:54:45.755Z,17.29
2022-09-16T12:59:55.944Z,17.88
2022-09-16T13:05:03.523Z,17.35
2022-09-16T13:10:46.756Z,17.63
2022-09-16T13:15:59.002Z,16.81
2022-09-16T13:21:07.606Z,15.67
2022-09-16T13:26:10.253Z,15.12
2022-09-16T13:31:12.413Z,14.57
2022-09-16T13:36:30.631Z,16.11
2022-09-16T13:41:57.322Z,16.22
2022-09-16T13:54:04.267Z,16.16
2022-09-16T13:59:13.218Z,16.70
2022-09-16T14:04:17.776Z,16.70
2022-09-16T14:09:44.130Z,16.21
2022-09-16T14:14:48.448Z,15.58
2022-09-16T14:19:56.678Z,13.29
2022-09-16T14:25:06.387Z,11.86
2022-09-16T14:30:17.546Z,12.22
2022-09-16T14:35:22.782Z,13.26
2022-09-16T14:40:26.403Z,13.99
2022-09-16T14:45:30.508Z,14.14
2022-09-16T14:50:36.765Z,13.99
2022-09-16T14:55:40.192Z,13.75
2022-09-16T15:00:47.285Z,13.25
2022-09-16T15:05:49.289Z,13.05
2022-09-16T15:10:54.295Z,13.99
2022-09-16T15:16:03.127Z,14.38
2022-09-16T15:28:15.447Z,14.20
2022-09-16T15:33:29.847Z,14.52
2022-09-16T15:38:34.340Z,14.71
2022-09-16T15:43:42.670Z,14.85
2022-09-16T15:55:56.453Z,14.93
2022-09-16T16:07:55.652Z,14.32
2022-09-16T16:12:59.697Z,14.31
2022-09-16T16:18:05.125Z,14.07
2022-09-16T16:23:07.061Z,14.11
2022-09-16T16:28:08.608Z,14.23
2022-09-16T16:33:10.077Z,13.99
2022-09-16T16:38:19.046Z,13.91
2022-09-16T16:43:20.669Z,14.03
2022-09-16T16:48:23.057Z,13.76
2022-09-16T16:53:24.527Z,13.59
2022-09-16T17:05:21.236Z,13.81
2022-09-16T17:10:23.823Z,13.73
2022-09-16T17:15:25.864Z,13.50
2022-09-16T17:20:27.960Z,13.45
2022-09-16T17:25:29.626Z,13.17
2022-09-16T17:30:31.106Z,13.16
2022-09-16T17:35:32.589Z,13.07
2022-09-16T17:40:34.676Z,13.09
2022-09-16T17:45:36.323Z,12.91
2022-09-16T17:50:38.641Z,12.02
2022-09-16T17:55:40.303Z,11.30
2022-09-16T18:00:42.946Z,10.98
2022-09-16T18:06:12.983Z,10.72
2022-09-16T18:11:16.099Z,10.77
2022-09-16T18:16:20.147Z,10.72
2022-09-16T18:21:23.981Z,10.67
2022-09-16T18:26:26.385Z,10.64
2022-09-16T18:31:27.946Z,10.56
2022-09-16T18:36:30.508Z,10.52
2022-09-16T18:41:36.406Z,10.54
2022-09-16T18:46:38.516Z,10.60
2022-09-16T18:51:46.248Z,10.61
2022-09-16T18:56:50.766Z,10.65
2022-09-16T19:01:54.250Z,10.63
2022-09-16T19:06:59.348Z,10.55
2022-09-16T19:12:01.492Z,10.44
2022-09-16T19:17:03.509Z,10.40
2022-09-16T19:22:06.023Z,10.36
2022-09-16T19:27:07.803Z,10.33
2022-09-16T19:32:09.475Z,10.26
2022-09-16T19:37:11.004Z,10.23
2022-09-16T19:42:12.729Z,10.30
2022-09-16T19:47:15.115Z,10.28
2022-09-16T19:52:16.634Z,10.21
2022-09-16T19:57:19.016Z,10.30
2022-09-16T20:02:20.549Z,10.30
2022-09-16T20:07:22.468Z,10.33
2022-09-16T20:12:24.124Z,10.41
2022-09-16T20:17:25.623Z,10.35
2022-09-16T20:22:27.219Z,10.36
2022-09-16T20:27:28.693Z,10.41
2022-09-16T20:32:30.374Z,10.44
2022-09-16T20:37:31.874Z,10.48
2022-09-16T20:42:34.411Z,10.50
2022-09-16T20:47:35.893Z,10.55
2022-09-16T20:52:43.589Z,10.34
2022-09-16T20:58:10.861Z,10.21
2022-09-16T21:03:13.950Z,10.10
2022-09-16T21:08:15.538Z,10.04
2022-09-16T21:13:17.155Z,9.98
2022-09-16T21:18:18.650Z,9.94
2022-09-16T21:23:20.291Z,9.96
2022-09-16T21:28:23.341Z,9.94
2022-09-16T21:33:25.641Z,9.97
2022-09-16T21:38:28.101Z,9.94
2022-09-16T21:43:32.451Z,9.92
2022-09-16T21:48:33.962Z,9.88
2022-09-16T21:53:45.785Z,9.93
2022-09-16T21:58:48.714Z,9.97
2022-09-16T22:03:55.799Z,9.94
2022-09-16T22:09:01.082Z,9.97
2022-09-16T22:14:03.490Z,9.95
2022-09-16T22:19:11.420Z,9.98
2022-09-16T22:24:14.501Z,9.97
2022-09-16T22:29:16.109Z,10.02
2022-09-16T22:34:17.976Z,9.98
2022-09-16T22:39:19.938Z,9.90
2022-09-16T22:44:21.456Z,9.88
2022-09-16T22:49:22.919Z,9.92
2022-09-16T22:54:24.418Z,9.98
2022-09-16T22:59:25.920Z,10.04
2022-09-16T23:04:27.753Z,10.14
2022-09-16T23:09:29.250Z,10.10
2022-09-16T23:14:31.257Z,9.92
2022-09-16T23:19:32.793Z,9.92
2022-09-16T23:24:34.307Z,9.92
2022-09-16T23:29:35.837Z,9.90
2022-09-16T23:34:37.312Z,9.81
2022-09-16T23:39:38.770Z,9.67
2022-09-16T23:44:40.275Z,9.56
2022-09-16T23:49:41.772Z,9.47
2022-09-16T23:54:43.286Z,9.44
2022-09-16T23:59:44.801Z,9.36
